sensor_id;sensor_type;location;lat;lon;timestamp;P1;durP1;ratioP1;P2;durP2;ratioP2
38783;SDS011;24531;45.502;12.238;2022-12-10T00:00:36;88.82;;;38.97;;
38783;SDS011;24531;45.502;12.238;2022-12-10T00:03:02;59.50;;;31.45;;
38783;SDS011;24531;45.502;12.238;2022-12-10T00:05:28;75.18;;;45.03;;
38783;SDS011;24531;45.502;12.238;2022-12-10T00:07:53;58.60;;;34.00;;
38783;SDS011;24531;45.502;12.238;2022-12-10T00:10:19;215.63;;;120.10;;
38783;SDS011;24531;45.502;12.238;2022-12-10T00:12:44;228.52;;;122.60;;
38783;SDS011;24531;45.502;12.238;2022-12-10T00:15:10;94.35;;;47.33;;
38783;SDS011;24531;45.502;12.238;2022-12-10T00:17:36;56.67;;;31.70;;
38783;SDS011;24531;45.502;12.238;2022-12-10T00:20:01;43.40;;;26.75;;
38783;SDS011;24531;45.502;12.238;2022-12-10T00:22:27;34.92;;;25.02;;
38783;SDS011;24531;45.502;12.238;2022-12-10T00:24:53;32.67;;;21.13;;
38783;SDS011;24531;45.502;12.238;2022-12-10T00:27:19;30.15;;;21.17;;
38783;SDS011;24531;45.502;12.238;2022-12-10T00:29:44;26.65;;;19.60;;
38783;SDS011;24531;45.502;12.238;2022-12-10T00:32:10;25.83;;;18.45;;
38783;SDS011;24531;45.502;12.238;2022-12-10T00:34:35;24.77;;;17.80;;
38783;SDS011;24531;45.502;12.238;2022-12-10T00:37:01;22.92;;;17.40;;
38783;SDS011;24531;45.502;12.238;2022-12-10T00:39:27;25.55;;;18.20;;
38783;SDS011;24531;45.502;12.238;2022-12-10T00:41:54;24.10;;;18.63;;
38783;SDS011;24531;45.502;12.238;2022-12-10T00:44:19;26.08;;;18.80;;
38783;SDS011;24531;45.502;12.238;2022-12-10T00:46:45;27.23;;;18.77;;
38783;SDS011;24531;45.502;12.238;2022-12-10T00:49:11;25.13;;;18.48;;
38783;SDS011;24531;45.502;12.238;2022-12-10T00:51:37;25.30;;;18.85;;
38783;SDS011;24531;45.502;12.238;2022-12-10T00:54:03;26.02;;;19.05;;
38783;SDS011;24531;45.502;12.238;2022-12-10T00:56:30;27.52;;;19.75;;
38783;SDS011;24531;45.502;12.238;2022-12-10T00:58:57;28.33;;;20.17;;
38783;SDS011;24531;45.502;12.238;2022-12-10T01:01:28;27.50;;;20.83;;
38783;SDS011;24531;45.502;12.238;2022-12-10T01:03:57;28.35;;;21.55;;
38783;SDS011;24531;45.502;12.238;2022-12-10T01:06:26;27.25;;;19.98;;
38783;SDS011;24531;45.502;12.238;2022-12-10T01:08:55;27.83;;;19.63;;
38783;SDS011;24531;45.502;12.238;2022-12-10T01:11:24;31.65;;;20.92;;
38783;SDS011;24531;45.502;12.238;2022-12-10T01:13:52;26.80;;;18.40;;
38783;SDS011;24531;45.502;12.238;2022-12-10T01:16:19;24.38;;;17.58;;
38783;SDS011;24531;45.502;12.238;2022-12-10T01:18:46;28.90;;;19.33;;
38783;SDS011;24531;45.502;12.238;2022-12-10T01:21:14;27.63;;;19.10;;
38783;SDS011;24531;45.502;12.238;2022-12-10T01:23:42;26.20;;;19.95;;
38783;SDS011;24531;45.502;12.238;2022-12-10T01:26:10;27.83;;;19.85;;
38783;SDS011;24531;45.502;12.238;2022-12-10T01:28:38;27.52;;;20.27;;
38783;SDS011;24531;45.502;12.238;2022-12-10T01:31:06;32.85;;;20.75;;
38783;SDS011;24531;45.502;12.238;2022-12-10T01:33:51;25.27;;;18.05;;
38783;SDS011;24531;45.502;12.238;2022-12-10T01:36:19;27.30;;;19.35;;
38783;SDS011;24531;45.502;12.238;2022-12-10T01:38:46;25.33;;;18.17;;
38783;SDS011;24531;45.502;12.238;2022-12-10T01:41:23;25.67;;;17.88;;
38783;SDS011;24531;45.502;12.238;2022-12-10T01:46:22;22.88;;;17.02;;
38783;SDS011;24531;45.502;12.238;2022-12-10T01:48:49;21.50;;;16.77;;
38783;SDS011;24531;45.502;12.238;2022-12-10T01:51:15;23.15;;;17.77;;
38783;SDS011;24531;45.502;12.238;2022-12-10T01:53:42;24.13;;;17.08;;
38783;SDS011;24531;45.502;12.238;2022-12-10T01:56:09;25.05;;;17.60;;
38783;SDS011;24531;45.502;12.238;2022-12-10T01:58:36;22.50;;;17.00;;
38783;SDS011;24531;45.502;12.238;2022-12-10T02:01:13;23.77;;;17.05;;
38783;SDS011;24531;45.502;12.238;2022-12-10T02:07:00;22.45;;;17.48;;
38783;SDS011;24531;45.502;12.238;2022-12-10T02:12:15;22.25;;;15.80;;
38783;SDS011;24531;45.502;12.238;2022-12-10T02:17:15;27.67;;;18.73;;
38783;SDS011;24531;45.502;12.238;2022-12-10T02:19:52;22.58;;;17.85;;
38783;SDS011;24531;45.502;12.238;2022-12-10T02:22:24;22.95;;;17.15;;
38783;SDS011;24531;45.502;12.238;2022-12-10T02:24:54;23.80;;;18.55;;
38783;SDS011;24531;45.502;12.238;2022-12-10T02:27:27;24.60;;;17.80;;
38783;SDS011;24531;45.502;12.238;2022-12-10T02:29:59;23.25;;;18.23;;
38783;SDS011;24531;45.502;12.238;2022-12-10T02:32:29;23.73;;;17.10;;
38783;SDS011;24531;45.502;12.238;2022-12-10T02:35:11;24.92;;;17.83;;
38783;SDS011;24531;45.502;12.238;2022-12-10T02:37:48;24.60;;;17.27;;
38783;SDS011;24531;45.502;12.238;2022-12-10T02:40:19;24.73;;;18.55;;
38783;SDS011;24531;45.502;12.238;2022-12-10T02:45:27;23.20;;;17.70;;
38783;SDS011;24531;45.502;12.238;2022-12-10T02:47:55;22.00;;;17.90;;
38783;SDS011;24531;45.502;12.238;2022-12-10T02:50:23;25.27;;;18.08;;
38783;SDS011;24531;45.502;12.238;2022-12-10T02:52:49;23.98;;;18.02;;
38783;SDS011;24531;45.502;12.238;2022-12-10T02:55:15;22.73;;;16.98;;
38783;SDS011;24531;45.502;12.238;2022-12-10T03:00:39;24.60;;;17.38;;
38783;SDS011;24531;45.502;12.238;2022-12-10T03:03:22;22.85;;;16.98;;
38783;SDS011;24531;45.502;12.238;2022-12-10T03:08:53;24.40;;;17.92;;
38783;SDS011;24531;45.502;12.238;2022-12-10T03:11:25;22.83;;;17.77;;
38783;SDS011;24531;45.502;12.238;2022-12-10T03:16:44;23.05;;;17.08;;
38783;SDS011;24531;45.502;12.238;2022-12-10T03:19:18;20.00;;;16.27;;
38783;SDS011;24531;45.502;12.238;2022-12-10T03:21:48;22.00;;;17.90;;
38783;SDS011;24531;45.502;12.238;2022-12-10T03:24:16;22.77;;;17.17;;
38783;SDS011;24531;45.502;12.238;2022-12-10T03:26:43;27.20;;;18.15;;
38783;SDS011;24531;45.502;12.238;2022-12-10T03:29:33;27.10;;;18.65;;
38783;SDS011;24531;45.502;12.238;2022-12-10T03:32:02;24.58;;;18.13;;
38783;SDS011;24531;45.502;12.238;2022-12-10T03:34:29;26.30;;;19.15;;
38783;SDS011;24531;45.502;12.238;2022-12-10T03:36:54;25.17;;;18.25;;
38783;SDS011;24531;45.502;12.238;2022-12-10T03:39:20;25.05;;;18.17;;
38783;SDS011;24531;45.502;12.238;2022-12-10T03:41:47;24.98;;;18.52;;
38783;SDS011;24531;45.502;12.238;2022-12-10T03:44:12;23.98;;;18.45;;
38783;SDS011;24531;45.502;12.238;2022-12-10T03:46:38;22.92;;;18.40;;
38783;SDS011;24531;45.502;12.238;2022-12-10T03:49:04;24.00;;;18.42;;
38783;SDS011;24531;45.502;12.238;2022-12-10T03:51:30;27.83;;;19.02;;
38783;SDS011;24531;45.502;12.238;2022-12-10T03:53:55;26.67;;;18.15;;
38783;SDS011;24531;45.502;12.238;2022-12-10T03:56:21;23.60;;;18.25;;
38783;SDS011;24531;45.502;12.238;2022-12-10T03:58:47;23.55;;;17.83;;
38783;SDS011;24531;45.502;12.238;2022-12-10T04:01:14;25.20;;;19.38;;
38783;SDS011;24531;45.502;12.238;2022-12-10T04:03:40;25.10;;;18.83;;
38783;SDS011;24531;45.502;12.238;2022-12-10T04:06:08;26.75;;;18.77;;
38783;SDS011;24531;45.502;12.238;2022-12-10T04:08:41;29.40;;;19.98;;
38783;SDS011;24531;45.502;12.238;2022-12-10T04:11:08;28.38;;;19.50;;
38783;SDS011;24531;45.502;12.238;2022-12-10T04:13:36;25.80;;;19.38;;
38783;SDS011;24531;45.502;12.238;2022-12-10T04:16:21;27.38;;;20.05;;
38783;SDS011;24531;45.502;12.238;2022-12-10T04:18:58;28.25;;;19.77;;
38783;SDS011;24531;45.502;12.238;2022-12-10T04:21:32;29.95;;;21.35;;
38783;SDS011;24531;45.502;12.238;2022-12-10T04:24:20;30.13;;;20.48;;
38783;SDS011;24531;45.502;12.238;2022-12-10T04:27:07;28.42;;;20.40;;
38783;SDS011;24531;45.502;12.238;2022-12-10T04:29:35;31.60;;;20.25;;
38783;SDS011;24531;45.502;12.238;2022-12-10T04:32:01;29.65;;;21.05;;
38783;SDS011;24531;45.502;12.238;2022-12-10T04:34:27;28.05;;;19.00;;
38783;SDS011;24531;45.502;12.238;2022-12-10T04:36:53;31.65;;;22.33;;
38783;SDS011;24531;45.502;12.238;2022-12-10T04:39:19;32.00;;;22.75;;
38783;SDS011;24531;45.502;12.238;2022-12-10T04:41:47;29.02;;;20.20;;
38783;SDS011;24531;45.502;12.238;2022-12-10T04:44:13;32.58;;;22.25;;
38783;SDS011;24531;45.502;12.238;2022-12-10T04:46:40;31.15;;;22.45;;
38783;SDS011;24531;45.502;12.238;2022-12-10T04:49:06;32.95;;;21.60;;
38783;SDS011;24531;45.502;12.238;2022-12-10T04:51:32;31.02;;;22.63;;
38783;SDS011;24531;45.502;12.238;2022-12-10T04:53:58;32.78;;;22.42;;
38783;SDS011;24531;45.502;12.238;2022-12-10T04:56:24;33.25;;;21.75;;
38783;SDS011;24531;45.502;12.238;2022-12-10T04:58:50;33.47;;;22.80;;
38783;SDS011;24531;45.502;12.238;2022-12-10T05:01:16;34.15;;;22.88;;
38783;SDS011;24531;45.502;12.238;2022-12-10T05:03:43;34.53;;;22.70;;
38783;SDS011;24531;45.502;12.238;2022-12-10T05:06:10;35.80;;;22.60;;
38783;SDS011;24531;45.502;12.238;2022-12-10T05:08:39;38.58;;;24.27;;
38783;SDS011;24531;45.502;12.238;2022-12-10T05:11:06;36.00;;;23.25;;
38783;SDS011;24531;45.502;12.238;2022-12-10T05:13:34;38.30;;;25.02;;
38783;SDS011;24531;45.502;12.238;2022-12-10T05:16:03;38.55;;;24.10;;
38783;SDS011;24531;45.502;12.238;2022-12-10T05:18:29;34.88;;;22.55;;
38783;SDS011;24531;45.502;12.238;2022-12-10T05:20:59;36.92;;;23.55;;
38783;SDS011;24531;45.502;12.238;2022-12-10T05:23:28;37.67;;;23.48;;
38783;SDS011;24531;45.502;12.238;2022-12-10T05:28:28;39.38;;;25.10;;
38783;SDS011;24531;45.502;12.238;2022-12-10T05:30:55;36.35;;;23.92;;
38783;SDS011;24531;45.502;12.238;2022-12-10T05:33:21;41.55;;;25.85;;
38783;SDS011;24531;45.502;12.238;2022-12-10T05:35:51;35.92;;;24.35;;
38783;SDS011;24531;45.502;12.238;2022-12-10T05:38:27;41.05;;;25.52;;
38783;SDS011;24531;45.502;12.238;2022-12-10T05:40:55;37.60;;;24.88;;
38783;SDS011;24531;45.502;12.238;2022-12-10T05:43:20;39.47;;;25.52;;
38783;SDS011;24531;45.502;12.238;2022-12-10T05:45:46;36.72;;;23.83;;
38783;SDS011;24531;45.502;12.238;2022-12-10T05:48:13;41.70;;;26.25;;
38783;SDS011;24531;45.502;12.238;2022-12-10T05:50:40;40.25;;;26.05;;
38783;SDS011;24531;45.502;12.238;2022-12-10T05:53:06;41.42;;;25.95;;
38783;SDS011;24531;45.502;12.238;2022-12-10T05:55:32;40.60;;;24.52;;
38783;SDS011;24531;45.502;12.238;2022-12-10T05:57:58;40.53;;;26.48;;
38783;SDS011;24531;45.502;12.238;2022-12-10T06:00:25;38.90;;;26.25;;
38783;SDS011;24531;45.502;12.238;2022-12-10T06:02:52;41.15;;;26.20;;
38783;SDS011;24531;45.502;12.238;2022-12-10T06:05:18;42.35;;;26.90;;
38783;SDS011;24531;45.502;12.238;2022-12-10T06:07:44;45.92;;;27.42;;
38783;SDS011;24531;45.502;12.238;2022-12-10T06:10:10;45.20;;;27.15;;
38783;SDS011;24531;45.502;12.238;2022-12-10T06:12:37;42.72;;;26.23;;
38783;SDS011;24531;45.502;12.238;2022-12-10T06:15:05;42.10;;;26.08;;
38783;SDS011;24531;45.502;12.238;2022-12-10T06:17:31;42.00;;;26.10;;
38783;SDS011;24531;45.502;12.238;2022-12-10T06:19:57;48.60;;;28.58;;
38783;SDS011;24531;45.502;12.238;2022-12-10T06:22:23;40.97;;;26.73;;
38783;SDS011;24531;45.502;12.238;2022-12-10T06:24:48;47.83;;;26.00;;
38783;SDS011;24531;45.502;12.238;2022-12-10T06:27:14;45.67;;;27.25;;
38783;SDS011;24531;45.502;12.238;2022-12-10T06:29:40;51.90;;;28.17;;
38783;SDS011;24531;45.502;12.238;2022-12-10T06:32:06;48.35;;;28.15;;
38783;SDS011;24531;45.502;12.238;2022-12-10T06:34:31;52.22;;;25.88;;
38783;SDS011;24531;45.502;12.238;2022-12-10T06:36:57;47.40;;;26.52;;
38783;SDS011;24531;45.502;12.238;2022-12-10T06:39:22;46.95;;;26.25;;
38783;SDS011;24531;45.502;12.238;2022-12-10T06:41:49;43.38;;;27.55;;
38783;SDS011;24531;45.502;12.238;2022-12-10T06:44:15;42.45;;;26.15;;
38783;SDS011;24531;45.502;12.238;2022-12-10T06:46:40;45.67;;;28.35;;
38783;SDS011;24531;45.502;12.238;2022-12-10T06:49:06;42.42;;;25.77;;
38783;SDS011;24531;45.502;12.238;2022-12-10T06:51:33;43.60;;;25.85;;
38783;SDS011;24531;45.502;12.238;2022-12-10T06:53:58;42.65;;;23.38;;
38783;SDS011;24531;45.502;12.238;2022-12-10T06:56:24;42.60;;;25.90;;
38783;SDS011;24531;45.502;12.238;2022-12-10T06:58:50;48.85;;;26.17;;
38783;SDS011;24531;45.502;12.238;2022-12-10T07:01:22;45.65;;;27.08;;
38783;SDS011;24531;45.502;12.238;2022-12-10T07:03:54;42.58;;;25.90;;
38783;SDS011;24531;45.502;12.238;2022-12-10T07:06:21;47.47;;;27.05;;
38783;SDS011;24531;45.502;12.238;2022-12-10T07:08:49;46.35;;;26.17;;
38783;SDS011;24531;45.502;12.238;2022-12-10T07:11:18;50.97;;;27.95;;
38783;SDS011;24531;45.502;12.238;2022-12-10T07:13:58;44.33;;;24.88;;
38783;SDS011;24531;45.502;12.238;2022-12-10T07:16:28;49.90;;;25.95;;
38783;SDS011;24531;45.502;12.238;2022-12-10T07:18:56;42.03;;;25.60;;
38783;SDS011;24531;45.502;12.238;2022-12-10T07:21:27;48.63;;;28.10;;
38783;SDS011;24531;45.502;12.238;2022-12-10T07:23:55;59.50;;;32.65;;
38783;SDS011;24531;45.502;12.238;2022-12-10T07:26:33;75.00;;;47.97;;
38783;SDS011;24531;45.502;12.238;2022-12-10T07:29:01;53.47;;;30.80;;
38783;SDS011;24531;45.502;12.238;2022-12-10T07:31:27;46.72;;;28.05;;
38783;SDS011;24531;45.502;12.238;2022-12-10T07:33:57;47.22;;;25.98;;
38783;SDS011;24531;45.502;12.238;2022-12-10T07:36:23;107.57;;;66.65;;
38783;SDS011;24531;45.502;12.238;2022-12-10T07:38:49;79.82;;;48.42;;
38783;SDS011;24531;45.502;12.238;2022-12-10T07:41:16;58.28;;;33.85;;
38783;SDS011;24531;45.502;12.238;2022-12-10T07:43:42;46.35;;;28.10;;
38783;SDS011;24531;45.502;12.238;2022-12-10T07:46:16;40.65;;;24.90;;
38783;SDS011;24531;45.502;12.238;2022-12-10T07:48:45;45.85;;;26.23;;
38783;SDS011;24531;45.502;12.238;2022-12-10T07:51:13;46.92;;;28.95;;
38783;SDS011;24531;45.502;12.238;2022-12-10T07:53:45;41.40;;;26.15;;
38783;SDS011;24531;45.502;12.238;2022-12-10T07:56:12;48.25;;;29.15;;
38783;SDS011;24531;45.502;12.238;2022-12-10T07:58:40;38.88;;;25.58;;
38783;SDS011;24531;45.502;12.238;2022-12-10T08:01:08;49.42;;;31.83;;
38783;SDS011;24531;45.502;12.238;2022-12-10T08:03:36;43.70;;;27.42;;
38783;SDS011;24531;45.502;12.238;2022-12-10T08:06:12;46.35;;;26.80;;
38783;SDS011;24531;45.502;12.238;2022-12-10T08:08:40;44.85;;;26.63;;
38783;SDS011;24531;45.502;12.238;2022-12-10T08:11:07;46.35;;;27.70;;
38783;SDS011;24531;45.502;12.238;2022-12-10T08:13:33;45.30;;;26.15;;
38783;SDS011;24531;45.502;12.238;2022-12-10T08:16:06;46.97;;;27.38;;
38783;SDS011;24531;45.502;12.238;2022-12-10T08:18:41;42.53;;;24.40;;
38783;SDS011;24531;45.502;12.238;2022-12-10T08:21:14;40.85;;;25.20;;
38783;SDS011;24531;45.502;12.238;2022-12-10T08:23:44;39.90;;;24.92;;
38783;SDS011;24531;45.502;12.238;2022-12-10T08:26:17;42.00;;;24.83;;
38783;SDS011;24531;45.502;12.238;2022-12-10T08:28:45;42.42;;;26.30;;
38783;SDS011;24531;45.502;12.238;2022-12-10T08:31:13;45.70;;;25.52;;
38783;SDS011;24531;45.502;12.238;2022-12-10T08:33:40;46.97;;;25.45;;
38783;SDS011;24531;45.502;12.238;2022-12-10T08:36:07;43.92;;;26.65;;
38783;SDS011;24531;45.502;12.238;2022-12-10T08:38:36;46.88;;;28.67;;
38783;SDS011;24531;45.502;12.238;2022-12-10T08:41:13;42.28;;;27.10;;
38783;SDS011;24531;45.502;12.238;2022-12-10T08:43:40;44.65;;;25.45;;
38783;SDS011;24531;45.502;12.238;2022-12-10T08:46:06;41.92;;;24.90;;
38783;SDS011;24531;45.502;12.238;2022-12-10T08:48:33;37.97;;;24.90;;
38783;SDS011;24531;45.502;12.238;2022-12-10T08:51:00;41.60;;;25.55;;
38783;SDS011;24531;45.502;12.238;2022-12-10T08:53:26;39.92;;;25.33;;
38783;SDS011;24531;45.502;12.238;2022-12-10T08:55:52;42.55;;;25.90;;
38783;SDS011;24531;45.502;12.238;2022-12-10T08:58:19;41.83;;;26.73;;
38783;SDS011;24531;45.502;12.238;2022-12-10T09:00:48;47.85;;;26.15;;
38783;SDS011;24531;45.502;12.238;2022-12-10T09:03:20;40.90;;;24.70;;
38783;SDS011;24531;45.502;12.238;2022-12-10T09:05:46;39.00;;;24.85;;
38783;SDS011;24531;45.502;12.238;2022-12-10T09:08:12;42.78;;;26.50;;
38783;SDS011;24531;45.502;12.238;2022-12-10T09:10:42;41.97;;;26.40;;
38783;SDS011;24531;45.502;12.238;2022-12-10T09:13:11;45.00;;;27.05;;
38783;SDS011;24531;45.502;12.238;2022-12-10T09:15:38;46.03;;;26.40;;
38783;SDS011;24531;45.502;12.238;2022-12-10T09:18:04;46.55;;;25.23;;
38783;SDS011;24531;45.502;12.238;2022-12-10T09:20:29;43.40;;;23.88;;
38783;SDS011;24531;45.502;12.238;2022-12-10T09:22:55;48.60;;;27.58;;
38783;SDS011;24531;45.502;12.238;2022-12-10T09:25:21;49.83;;;27.55;;
38783;SDS011;24531;45.502;12.238;2022-12-10T09:27:53;50.45;;;28.40;;
38783;SDS011;24531;45.502;12.238;2022-12-10T09:30:22;47.45;;;26.10;;
38783;SDS011;24531;45.502;12.238;2022-12-10T09:32:48;48.70;;;26.85;;
38783;SDS011;24531;45.502;12.238;2022-12-10T09:35:14;48.85;;;27.73;;
38783;SDS011;24531;45.502;12.238;2022-12-10T09:37:39;54.03;;;28.30;;
38783;SDS011;24531;45.502;12.238;2022-12-10T09:40:05;55.22;;;28.13;;
38783;SDS011;24531;45.502;12.238;2022-12-10T09:43:19;53.28;;;29.17;;
38783;SDS011;24531;45.502;12.238;2022-12-10T09:45:45;52.97;;;27.38;;
38783;SDS011;24531;45.502;12.238;2022-12-10T09:51:24;57.72;;;27.70;;
38783;SDS011;24531;45.502;12.238;2022-12-10T09:53:59;55.00;;;27.50;;
38783;SDS011;24531;45.502;12.238;2022-12-10T09:56:34;56.17;;;27.83;;
38783;SDS011;24531;45.502;12.238;2022-12-10T09:59:48;59.25;;;27.95;;
38783;SDS011;24531;45.502;12.238;2022-12-10T10:02:02;58.65;;;26.25;;
38783;SDS011;24531;45.502;12.238;2022-12-10T10:04:37;65.53;;;27.88;;
38783;SDS011;24531;45.502;12.238;2022-12-10T10:07:04;66.10;;;28.98;;
38783;SDS011;24531;45.502;12.238;2022-12-10T10:09:31;72.28;;;29.17;;
38783;SDS011;24531;45.502;12.238;2022-12-10T10:12:00;63.20;;;27.00;;
38783;SDS011;24531;45.502;12.238;2022-12-10T10:14:26;69.18;;;29.45;;
38783;SDS011;24531;45.502;12.238;2022-12-10T10:16:55;81.32;;;29.10;;
38783;SDS011;24531;45.502;12.238;2022-12-10T10:19:27;72.57;;;31.08;;
38783;SDS011;24531;45.502;12.238;2022-12-10T10:21:55;59.10;;;25.60;;
38783;SDS011;24531;45.502;12.238;2022-12-10T10:24:43;53.95;;;24.13;;
38783;SDS011;24531;45.502;12.238;2022-12-10T10:27:15;56.65;;;24.25;;
38783;SDS011;24531;45.502;12.238;2022-12-10T10:29:47;58.47;;;26.20;;
38783;SDS011;24531;45.502;12.238;2022-12-10T10:32:16;51.40;;;24.95;;
38783;SDS011;24531;45.502;12.238;2022-12-10T10:34:55;69.30;;;25.33;;
38783;SDS011;24531;45.502;12.238;2022-12-10T10:37:29;52.55;;;24.80;;
38783;SDS011;24531;45.502;12.238;2022-12-10T10:40:04;51.42;;;22.58;;
38783;SDS011;24531;45.502;12.238;2022-12-10T10:42:37;50.10;;;22.75;;
38783;SDS011;24531;45.502;12.238;2022-12-10T10:48:24;58.15;;;23.55;;
38783;SDS011;24531;45.502;12.238;2022-12-10T10:55:47;63.25;;;26.08;;
38783;SDS011;24531;45.502;12.238;2022-12-10T10:58:17;61.15;;;24.92;;
38783;SDS011;24531;45.502;12.238;2022-12-10T11:00:52;57.00;;;24.98;;
38783;SDS011;24531;45.502;12.238;2022-12-10T11:03:22;61.05;;;23.50;;
38783;SDS011;24531;45.502;12.238;2022-12-10T11:05:48;53.85;;;24.40;;
38783;SDS011;24531;45.502;12.238;2022-12-10T11:08:16;68.20;;;25.65;;
38783;SDS011;24531;45.502;12.238;2022-12-10T11:10:49;55.28;;;24.55;;
38783;SDS011;24531;45.502;12.238;2022-12-10T11:13:38;55.45;;;22.40;;
38783;SDS011;24531;45.502;12.238;2022-12-10T11:16:21;61.50;;;24.30;;
38783;SDS011;24531;45.502;12.238;2022-12-10T11:21:26;41.67;;;19.42;;
38783;SDS011;24531;45.502;12.238;2022-12-10T11:23:57;45.90;;;21.92;;
38783;SDS011;24531;45.502;12.238;2022-12-10T11:50:50;19.33;;;13.10;;
38783;SDS011;24531;45.502;12.238;2022-12-10T11:53:33;22.50;;;15.18;;
38783;SDS011;24531;45.502;12.238;2022-12-10T11:56:20;23.92;;;14.15;;
38783;SDS011;24531;45.502;12.238;2022-12-10T12:07:35;26.65;;;16.70;;
38783;SDS011;24531;45.502;12.238;2022-12-10T12:17:47;22.88;;;16.27;;
38783;SDS011;24531;45.502;12.238;2022-12-10T12:22:44;23.17;;;15.65;;
38783;SDS011;24531;45.502;12.238;2022-12-10T12:25:23;20.85;;;15.10;;
38783;SDS011;24531;45.502;12.238;2022-12-10T12:28:11;23.52;;;14.98;;
38783;SDS011;24531;45.502;12.238;2022-12-10T12:30:48;25.67;;;15.00;;
38783;SDS011;24531;45.502;12.238;2022-12-10T12:33:30;23.40;;;15.95;;
38783;SDS011;24531;45.502;12.238;2022-12-10T12:36:05;22.63;;;15.35;;
38783;SDS011;24531;45.502;12.238;2022-12-10T12:38:41;22.65;;;15.90;;
38783;SDS011;24531;45.502;12.238;2022-12-10T12:43:52;28.27;;;18.63;;
38783;SDS011;24531;45.502;12.238;2022-12-10T12:46:38;28.48;;;17.45;;
38783;SDS011;24531;45.502;12.238;2022-12-10T12:51:49;28.98;;;16.90;;
38783;SDS011;24531;45.502;12.238;2022-12-10T12:54:30;34.67;;;25.23;;
38783;SDS011;24531;45.502;12.238;2022-12-10T13:04:50;32.58;;;20.48;;
38783;SDS011;24531;45.502;12.238;2022-12-10T13:09:52;37.55;;;22.52;;
38783;SDS011;24531;45.502;12.238;2022-12-10T13:12:46;36.38;;;20.63;;
38783;SDS011;24531;45.502;12.238;2022-12-10T13:15:32;36.40;;;21.02;;
38783;SDS011;24531;45.502;12.238;2022-12-10T13:28:26;63.70;;;31.70;;
38783;SDS011;24531;45.502;12.238;2022-12-10T13:36:13;41.85;;;22.38;;
38783;SDS011;24531;45.502;12.238;2022-12-10T13:45:06;33.00;;;18.75;;
38783;SDS011;24531;45.502;12.238;2022-12-10T13:55:55;37.38;;;20.92;;
38783;SDS011;24531;45.502;12.238;2022-12-10T13:58:35;34.22;;;20.42;;
38783;SDS011;24531;45.502;12.238;2022-12-10T14:01:13;38.28;;;21.80;;
38783;SDS011;24531;45.502;12.238;2022-12-10T14:07:01;37.40;;;20.77;;
38783;SDS011;24531;45.502;12.238;2022-12-10T14:09:29;35.33;;;20.70;;
38783;SDS011;24531;45.502;12.238;2022-12-10T14:12:01;39.67;;;20.85;;
38783;SDS011;24531;45.502;12.238;2022-12-10T14:14:52;37.92;;;20.67;;
38783;SDS011;24531;45.502;12.238;2022-12-10T14:17:23;39.00;;;20.60;;
38783;SDS011;24531;45.502;12.238;2022-12-10T14:19:55;39.28;;;20.08;;
38783;SDS011;24531;45.502;12.238;2022-12-10T14:22:29;37.65;;;20.98;;
38783;SDS011;24531;45.502;12.238;2022-12-10T14:25:03;39.28;;;21.27;;
38783;SDS011;24531;45.502;12.238;2022-12-10T14:27:32;43.13;;;21.77;;
38783;SDS011;24531;45.502;12.238;2022-12-10T14:30:02;44.08;;;21.92;;
38783;SDS011;24531;45.502;12.238;2022-12-10T14:32:32;43.17;;;21.98;;
38783;SDS011;24531;45.502;12.238;2022-12-10T14:35:00;35.45;;;20.13;;
38783;SDS011;24531;45.502;12.238;2022-12-10T14:37:29;42.13;;;20.95;;
38783;SDS011;24531;45.502;12.238;2022-12-10T14:39:58;43.22;;;21.92;;
38783;SDS011;24531;45.502;12.238;2022-12-10T14:42:24;38.05;;;20.75;;
38783;SDS011;24531;45.502;12.238;2022-12-10T14:44:57;40.15;;;20.70;;
38783;SDS011;24531;45.502;12.238;2022-12-10T14:47:25;45.00;;;21.77;;
38783;SDS011;24531;45.502;12.238;2022-12-10T14:49:53;41.65;;;20.30;;
38783;SDS011;24531;45.502;12.238;2022-12-10T14:52:20;42.58;;;21.25;;
38783;SDS011;24531;45.502;12.238;2022-12-10T14:54:48;48.22;;;22.52;;
38783;SDS011;24531;45.502;12.238;2022-12-10T14:57:17;41.88;;;20.90;;
38783;SDS011;24531;45.502;12.238;2022-12-10T15:02:28;41.65;;;20.00;;
38783;SDS011;24531;45.502;12.238;2022-12-10T15:05:10;37.65;;;20.55;;
38783;SDS011;24531;45.502;12.238;2022-12-10T15:07:38;45.13;;;23.92;;
38783;SDS011;24531;45.502;12.238;2022-12-10T15:10:06;46.63;;;21.88;;
38783;SDS011;24531;45.502;12.238;2022-12-10T15:15:41;46.40;;;23.95;;
38783;SDS011;24531;45.502;12.238;2022-12-10T15:20:36;45.47;;;22.75;;
38783;SDS011;24531;45.502;12.238;2022-12-10T15:23:17;42.53;;;22.63;;
38783;SDS011;24531;45.502;12.238;2022-12-10T15:31:12;43.28;;;22.88;;
38783;SDS011;24531;45.502;12.238;2022-12-10T15:33:47;48.75;;;24.70;;
38783;SDS011;24531;45.502;12.238;2022-12-10T15:36:30;50.15;;;23.88;;
38783;SDS011;24531;45.502;12.238;2022-12-10T15:39:16;41.92;;;23.00;;
38783;SDS011;24531;45.502;12.238;2022-12-10T15:41:46;40.88;;;22.17;;
38783;SDS011;24531;45.502;12.238;2022-12-10T15:47:16;42.45;;;23.27;;
38783;SDS011;24531;45.502;12.238;2022-12-10T15:49:44;42.95;;;23.52;;
38783;SDS011;24531;45.502;12.238;2022-12-10T15:52:14;42.88;;;24.92;;
38783;SDS011;24531;45.502;12.238;2022-12-10T15:54:43;43.20;;;23.58;;
38783;SDS011;24531;45.502;12.238;2022-12-10T15:59:41;42.28;;;24.17;;
38783;SDS011;24531;45.502;12.238;2022-12-10T16:05:02;62.05;;;37.33;;
38783;SDS011;24531;45.502;12.238;2022-12-10T16:07:38;52.85;;;30.48;;
38783;SDS011;24531;45.502;12.238;2022-12-10T16:10:04;43.60;;;25.92;;
38783;SDS011;24531;45.502;12.238;2022-12-10T16:12:30;43.85;;;25.15;;
38783;SDS011;24531;45.502;12.238;2022-12-10T16:14:58;42.47;;;24.73;;
38783;SDS011;24531;45.502;12.238;2022-12-10T16:17:27;46.20;;;24.65;;
38783;SDS011;24531;45.502;12.238;2022-12-10T16:19:53;48.65;;;26.10;;
38783;SDS011;24531;45.502;12.238;2022-12-10T16:22:22;42.75;;;24.92;;
38783;SDS011;24531;45.502;12.238;2022-12-10T16:24:48;47.90;;;26.55;;
38783;SDS011;24531;45.502;12.238;2022-12-10T16:27:14;47.03;;;26.08;;
38783;SDS011;24531;45.502;12.238;2022-12-10T16:29:41;53.63;;;26.70;;
38783;SDS011;24531;45.502;12.238;2022-12-10T16:32:08;70.53;;;29.48;;
38783;SDS011;24531;45.502;12.238;2022-12-10T16:34:34;47.83;;;24.92;;
38783;SDS011;24531;45.502;12.238;2022-12-10T16:37:00;46.67;;;26.00;;
38783;SDS011;24531;45.502;12.238;2022-12-10T16:39:26;49.83;;;27.58;;
38783;SDS011;24531;45.502;12.238;2022-12-10T16:41:52;42.83;;;25.45;;
38783;SDS011;24531;45.502;12.238;2022-12-10T16:44:18;46.55;;;25.50;;
38783;SDS011;24531;45.502;12.238;2022-12-10T16:46:44;40.28;;;24.27;;
38783;SDS011;24531;45.502;12.238;2022-12-10T16:49:09;46.03;;;26.52;;
38783;SDS011;24531;45.502;12.238;2022-12-10T16:51:35;48.85;;;27.15;;
38783;SDS011;24531;45.502;12.238;2022-12-10T16:54:01;46.42;;;26.85;;
38783;SDS011;24531;45.502;12.238;2022-12-10T16:56:28;47.17;;;25.90;;